Current Conditions
Mostly Cloudy
Conditions



Pressure
30.12 (inHG) - 1020.02 (mb)
Visibility

10.0 (mimiles) - 16.1 (km)
   Temperature
46  °F
8°C
34  °F
Dewpoint
62  %
 Humidity
   Wind Speed
7  mph
6  kts
11  km/h
3.1  m/s
   Wind Direction
 80°
Due East
   Airport Data
KORD
Location Chicago O'hare International 40 mi (64.36 km)
Metar :KORD 302151Z 08006KT 10SM BKN037 OVC046 08/01 A3012 RMK AO2 SLP202 T00780011
Mon 30th March 16:51 pm
   Raw Metar Info
Raw METAR is the most common format in the world for the transmission of observational weather data. It is highly standardized through the International Civil Aviation Organization (ICAO), which allows it to be understood throughout most of the world.
   API Info
Data Provided by
https://www.checkwx.com/weather/KORD
   © Info
CSS/SVG/PHP scripts were developed by weather34.com for use in the weather34 template © 2015-2020

Guide Info provided by Metar-Wikipedia